createdAt,value
2022-08-26T00:02:08.977Z,101412.63
2022-08-26T00:04:37.919Z,101416.03
2022-08-26T00:07:07.876Z,101416.56
2022-08-26T00:09:40.514Z,101423.81
2022-08-26T00:12:12.994Z,101421.91
2022-08-26T00:14:43.789Z,101424.22
2022-08-26T00:17:12.887Z,101428.06
2022-08-26T00:19:43.757Z,101423.22
2022-08-26T00:22:14.305Z,101418.78
2022-08-26T00:24:50.625Z,101415.75
2022-08-26T00:27:21.674Z,101432.38
2022-08-26T00:29:50.860Z,101427.94
2022-08-26T00:32:19.853Z,101438.00
2022-08-26T00:34:48.530Z,101440.81
2022-08-26T00:37:19.642Z,101436.66
2022-08-26T00:39:50.630Z,101430.38
2022-08-26T00:42:25.057Z,101433.59
2022-08-26T00:44:54.454Z,101432.28
2022-08-26T00:47:26.348Z,101430.22
2022-08-26T00:50:01.557Z,101436.88
2022-08-26T00:52:37.523Z,101431.34
2022-08-26T00:55:10.444Z,101435.50
2022-08-26T00:57:41.204Z,101440.34
2022-08-26T01:00:15.194Z,101443.47
2022-08-26T01:02:46.903Z,101442.16
2022-08-26T01:05:17.551Z,101440.47
2022-08-26T01:07:47.394Z,101444.34
2022-08-26T01:10:23.350Z,101435.63
2022-08-26T01:12:59.032Z,101433.56
2022-08-26T01:15:32.806Z,101448.59
2022-08-26T01:18:05.784Z,101435.63
2022-08-26T01:20:43.790Z,101440.44
2022-08-26T01:23:16.703Z,101442.00
2022-08-26T01:25:47.919Z,101438.16
2022-08-26T01:28:24.887Z,101438.16
2022-08-26T01:30:58.112Z,101433.81
2022-08-26T01:33:42.176Z,101446.41
2022-08-26T01:36:12.125Z,101439.28
2022-08-26T01:38:42.598Z,101434.53
2022-08-26T01:41:16.240Z,101428.97
2022-08-26T01:43:51.617Z,101438.88
2022-08-26T01:46:21.297Z,101438.16
2022-08-26T01:48:54.352Z,101449.78
2022-08-26T01:51:24.538Z,101446.63
2022-08-26T01:53:54.064Z,101434.66
2022-08-26T01:56:24.129Z,101436.97
2022-08-26T01:58:54.622Z,101444.34
2022-08-26T02:01:29.209Z,101442.63
2022-08-26T02:04:06.843Z,101446.03
2022-08-26T02:06:36.931Z,101449.16
2022-08-26T02:09:08.103Z,101452.91
2022-08-26T02:11:36.750Z,101449.69
2022-08-26T02:14:09.784Z,101450.59
2022-08-26T02:16:42.263Z,101442.88
2022-08-26T02:19:17.269Z,101448.31
2022-08-26T02:21:51.255Z,101440.09
2022-08-26T02:24:23.352Z,101443.94
2022-08-26T02:26:52.420Z,101455.53
2022-08-26T02:29:25.573Z,101453.47
2022-08-26T02:31:55.765Z,101450.44
2022-08-26T02:34:28.193Z,101443.06
2022-08-26T02:37:00.643Z,101454.44
2022-08-26T02:39:31.757Z,101452.66
2022-08-26T02:42:00.652Z,101443.72
2022-08-26T02:44:28.818Z,101446.63
2022-08-26T02:46:57.032Z,101454.75
2022-08-26T02:49:25.582Z,101458.69
2022-08-26T02:51:54.126Z,101453.38
2022-08-26T02:54:22.960Z,101439.00
2022-08-26T02:56:52.854Z,101446.84
2022-08-26T02:59:24.471Z,101448.19
2022-08-26T03:01:56.057Z,101442.34
2022-08-26T03:04:25.743Z,101441.69
2022-08-26T03:06:55.520Z,101446.72
2022-08-26T03:09:25.814Z,101454.56
2022-08-26T03:11:58.778Z,101455.63
2022-08-26T03:14:30.825Z,101458.91
2022-08-26T03:17:02.794Z,101456.75
2022-08-26T03:20:13.657Z,101460.41
2022-08-26T03:23:19.628Z,101453.03
2022-08-26T03:26:20.817Z,101456.53
2022-08-26T03:29:40.724Z,101459.81
2022-08-26T03:32:47.815Z,101457.13
2022-08-26T03:35:59.815Z,101461.63
2022-08-26T03:38:46.960Z,101472.97
2022-08-26T03:41:56.900Z,101465.63
2022-08-26T03:44:46.790Z,101473.81
2022-08-26T03:47:57.875Z,101463.88
2022-08-26T03:50:50.929Z,101470.78
2022-08-26T03:53:37.768Z,101470.19
2022-08-26T03:59:54.767Z,101466.66
2022-08-26T04:02:41.866Z,101469.06
2022-08-26T04:05:49.786Z,101465.84
2022-08-26T04:08:36.797Z,101458.69
2022-08-26T04:14:53.869Z,101454.84
2022-08-26T04:17:29.879Z,101458.97
2022-08-26T04:19:58.804Z,101449.13
2022-08-26T04:22:27.758Z,101444.91
2022-08-26T04:24:59.691Z,101456.59
2022-08-26T04:27:29.542Z,101450.34
2022-08-26T04:29:59.757Z,101452.50
2022-08-26T04:32:30.544Z,101448.16
2022-08-26T04:35:00.734Z,101455.81
2022-08-26T04:37:32.819Z,101456.06
2022-08-26T04:40:01.670Z,101453.13
2022-08-26T04:42:32.130Z,101458.13
2022-08-26T04:45:05.778Z,101459.66
2022-08-26T04:47:38.363Z,101456.03
2022-08-26T04:50:08.903Z,101459.38
2022-08-26T04:52:39.491Z,101463.00
2022-08-26T04:55:08.805Z,101458.91
2022-08-26T04:57:37.354Z,101465.97
2022-08-26T05:00:10.233Z,101455.00
2022-08-26T05:02:39.557Z,101458.34
2022-08-26T05:05:09.503Z,101454.41
2022-08-26T05:07:38.152Z,101462.56
2022-08-26T05:10:08.724Z,101446.91
2022-08-26T05:12:37.365Z,101454.06
2022-08-26T05:15:10.604Z,101455.66
2022-08-26T05:17:39.271Z,101446.81
2022-08-26T05:20:09.000Z,101450.84
2022-08-26T05:22:37.147Z,101451.63
2022-08-26T05:25:05.713Z,101455.72
2022-08-26T05:27:33.863Z,101453.06
2022-08-26T05:30:01.920Z,101465.28
2022-08-26T05:32:32.062Z,101451.59
2022-08-26T05:35:00.253Z,101454.28
2022-08-26T05:37:28.779Z,101454.16
2022-08-26T05:39:57.598Z,101464.44
2022-08-26T05:42:26.145Z,101467.63
2022-08-26T05:44:56.213Z,101476.13
2022-08-26T05:47:24.792Z,101486.78
2022-08-26T05:49:54.576Z,101492.28
2022-08-26T05:52:24.690Z,101490.22
2022-08-26T05:54:54.466Z,101493.63
2022-08-26T05:57:23.197Z,101495.91
2022-08-26T05:59:51.732Z,101493.88
2022-08-26T06:02:20.999Z,101490.47
2022-08-26T06:04:49.150Z,101487.31
2022-08-26T06:07:38.846Z,101493.25
2022-08-26T06:10:31.192Z,101494.44
2022-08-26T06:12:57.483Z,101498.28
2022-08-26T06:15:26.016Z,101517.19
2022-08-26T06:17:54.210Z,101516.19
2022-08-26T06:20:22.318Z,101517.19
2022-08-26T06:23:09.322Z,101512.78
2022-08-26T06:25:39.547Z,101514.31
2022-08-26T06:28:08.946Z,101509.22
2022-08-26T06:30:41.576Z,101507.06
2022-08-26T06:33:10.250Z,101501.47
2022-08-26T06:35:39.782Z,101497.44
2022-08-26T06:38:09.784Z,101507.06
2022-08-26T06:40:42.257Z,101502.44
2022-08-26T06:43:11.317Z,101505.13
2022-08-26T06:45:39.801Z,101497.75
2022-08-26T06:48:09.549Z,101495.81
2022-08-26T06:50:37.846Z,101506.41
2022-08-26T06:53:06.043Z,101515.09
2022-08-26T06:55:41.464Z,101521.78
2022-08-26T06:58:10.792Z,101526.88
2022-08-26T07:00:39.716Z,101538.34
2022-08-26T07:03:10.449Z,101531.72
2022-08-26T07:05:39.057Z,101530.19
2022-08-26T07:08:07.519Z,101535.41
2022-08-26T07:10:38.319Z,101538.06
2022-08-26T07:13:07.949Z,101540.75
2022-08-26T07:15:40.235Z,101532.66
2022-08-26T07:18:09.131Z,101539.19
2022-08-26T07:20:42.296Z,101550.91
2022-08-26T07:23:12.101Z,101540.13
2022-08-26T07:25:43.157Z,101544.94
2022-08-26T07:28:12.473Z,101546.00
2022-08-26T07:30:42.005Z,101556.19
2022-08-26T07:33:11.148Z,101560.97
2022-08-26T07:35:39.864Z,101567.00
2022-08-26T07:38:09.284Z,101570.34
2022-08-26T07:40:39.061Z,101577.97
2022-08-26T07:43:09.612Z,101565.28
2022-08-26T07:45:38.568Z,101570.03
2022-08-26T07:48:07.262Z,101572.28
2022-08-26T07:50:50.181Z,101576.47
2022-08-26T07:53:19.504Z,101572.19
2022-08-26T07:55:49.453Z,101586.91
2022-08-26T07:58:22.588Z,101580.59
2022-08-26T08:00:55.487Z,101588.22
2022-08-26T08:03:27.777Z,101583.25
2022-08-26T08:05:58.368Z,101591.06
2022-08-26T08:08:29.329Z,101593.97
2022-08-26T08:10:59.704Z,101585.13
2022-08-26T08:13:31.142Z,101590.53
2022-08-26T08:16:00.773Z,101594.19
2022-08-26T08:18:30.257Z,101594.03
2022-08-26T08:21:20.900Z,101592.84
2022-08-26T08:23:52.182Z,101597.03
2022-08-26T08:26:22.879Z,101604.28
2022-08-26T08:28:56.814Z,101605.78
2022-08-26T08:31:56.212Z,101600.66
2022-08-26T08:34:22.900Z,101596.25
2022-08-26T08:36:53.407Z,101601.28
2022-08-26T08:39:23.385Z,101601.72
2022-08-26T08:42:17.034Z,101600.72
2022-08-26T08:44:52.739Z,101602.28
2022-08-26T08:47:36.275Z,101596.22
2022-08-26T08:50:15.373Z,101601.84
2022-08-26T08:52:52.842Z,101599.31
2022-08-26T08:55:23.656Z,101605.53
2022-08-26T08:58:03.992Z,101610.56
2022-08-26T09:00:44.920Z,101601.34
2022-08-26T09:03:33.306Z,101610.50
2022-08-26T09:06:04.113Z,101592.06
2022-08-26T09:08:38.536Z,101607.81
2022-08-26T09:11:10.011Z,101609.47
2022-08-26T09:13:46.703Z,101610.28
2022-08-26T09:16:26.549Z,101613.28
2022-08-26T09:19:09.036Z,101600.53
2022-08-26T09:21:38.793Z,101608.31
2022-08-26T09:24:11.278Z,101599.91
2022-08-26T09:26:47.431Z,101598.16
2022-08-26T09:29:28.919Z,101614.59
2022-08-26T09:32:21.509Z,101603.06
2022-08-26T09:34:58.235Z,101609.84
2022-08-26T09:37:39.720Z,101606.97
2022-08-26T09:40:19.398Z,101618.78
2022-08-26T09:43:09.603Z,101619.91
2022-08-26T09:45:50.097Z,101615.84
2022-08-26T09:48:31.628Z,101615.47
2022-08-26T09:51:02.720Z,101618.44
2022-08-26T09:53:57.992Z,101615.41
2022-08-26T09:56:32.864Z,101633.38
2022-08-26T09:59:05.022Z,101633.47
2022-08-26T10:01:41.901Z,101628.97
2022-08-26T10:04:17.841Z,101632.72
2022-08-26T10:07:00.270Z,101630.78
2022-08-26T10:09:32.101Z,101636.06
2022-08-26T10:12:04.474Z,101630.06
2022-08-26T10:14:49.361Z,101630.38
2022-08-26T10:17:32.300Z,101630.78
2022-08-26T10:20:23.244Z,101626.75
2022-08-26T10:23:00.370Z,101637.00
2022-08-26T10:25:35.396Z,101634.75
2022-08-26T10:28:11.993Z,101630.16
2022-08-26T10:30:55.833Z,101633.88
2022-08-26T10:33:27.726Z,101633.41
2022-08-26T10:36:06.426Z,101636.34
2022-08-26T10:38:38.518Z,101636.88
2022-08-26T10:41:13.595Z,101635.25
2022-08-26T10:43:54.755Z,101648.75
2022-08-26T10:46:35.518Z,101647.53
2022-08-26T10:49:14.294Z,101641.75
2022-08-26T10:51:53.733Z,101632.16
2022-08-26T10:54:32.334Z,101639.09
2022-08-26T10:57:05.872Z,101646.84
2022-08-26T10:59:57.913Z,101650.66
2022-08-26T11:02:35.579Z,101648.38
2022-08-26T11:05:08.842Z,101642.72
2022-08-26T11:07:47.158Z,101650.38
2022-08-26T11:11:04.328Z,101656.31
2022-08-26T11:14:03.412Z,101654.00
2022-08-26T11:16:43.828Z,101657.50
2022-08-26T11:19:58.837Z,101647.59
2022-08-26T11:22:31.560Z,101652.53
2022-08-26T11:25:11.433Z,101654.06
2022-08-26T11:28:01.375Z,101654.47
2022-08-26T11:30:57.478Z,101645.19
2022-08-26T11:34:00.920Z,101644.91
2022-08-26T11:36:53.979Z,101654.47
2022-08-26T11:39:36.685Z,101651.19
2022-08-26T11:42:22.711Z,101647.06
2022-08-26T11:44:51.772Z,101651.84
2022-08-26T11:47:29.558Z,101656.03
2022-08-26T11:50:12.739Z,101653.03
2022-08-26T11:52:41.269Z,101659.66
2022-08-26T11:55:12.241Z,101649.84
2022-08-26T11:57:47.235Z,101646.44
2022-08-26T12:00:21.207Z,101654.16
2022-08-26T12:02:52.526Z,101642.41
2022-08-26T12:05:25.483Z,101646.03
2022-08-26T12:07:59.999Z,101646.97
2022-08-26T12:10:30.893Z,101642.00
2022-08-26T12:13:04.000Z,101646.22
2022-08-26T12:15:35.687Z,101646.84
2022-08-26T12:18:29.434Z,101641.16
2022-08-26T12:21:03.431Z,101648.25
2022-08-26T12:23:43.361Z,101644.19
2022-08-26T12:26:19.862Z,101643.84
2022-08-26T12:28:53.096Z,101646.44
2022-08-26T12:31:29.353Z,101650.91
2022-08-26T12:34:00.260Z,101650.91
2022-08-26T12:36:32.074Z,101647.47
2022-08-26T12:39:10.036Z,101653.47
2022-08-26T12:41:50.413Z,101659.88
2022-08-26T12:44:53.117Z,101668.41
2022-08-26T12:47:30.988Z,101673.53
2022-08-26T12:50:19.346Z,101672.50
2022-08-26T12:52:56.940Z,101672.97
2022-08-26T12:55:35.558Z,101675.53
2022-08-26T12:58:26.496Z,101682.16
2022-08-26T13:00:58.206Z,101670.84
2022-08-26T13:03:43.953Z,101681.34
2022-08-26T13:06:15.721Z,101680.41
2022-08-26T13:08:46.060Z,101672.28
2022-08-26T13:11:18.623Z,101675.06
2022-08-26T13:13:47.121Z,101676.38
2022-08-26T13:16:16.790Z,101684.13
2022-08-26T13:18:45.244Z,101672.78
2022-08-26T13:21:17.609Z,101668.66
2022-08-26T13:23:46.384Z,101659.16
2022-08-26T13:26:15.400Z,101652.78
2022-08-26T13:28:44.633Z,101645.25
2022-08-26T13:31:17.898Z,101640.09
2022-08-26T13:33:48.611Z,101637.88
2022-08-26T13:36:17.548Z,101643.22
2022-08-26T13:38:48.296Z,101640.00
2022-08-26T13:41:23.631Z,101635.34
2022-08-26T13:43:58.935Z,101634.66
2022-08-26T13:46:32.784Z,101619.69
2022-08-26T13:49:03.102Z,101619.84
2022-08-26T13:51:33.664Z,101628.75
2022-08-26T13:54:02.301Z,101620.09
2022-08-26T13:56:32.407Z,101621.00
2022-08-26T13:59:04.318Z,101620.25
2022-08-26T14:01:36.227Z,101608.06
2022-08-26T14:04:07.183Z,101606.38
2022-08-26T14:06:36.704Z,101610.91
2022-08-26T14:09:05.417Z,101614.34
2022-08-26T14:11:41.146Z,101613.72
2022-08-26T14:14:22.891Z,101606.59
2022-08-26T14:16:59.831Z,101606.97
2022-08-26T14:19:33.841Z,101608.53
2022-08-26T14:22:04.551Z,101617.72
2022-08-26T14:24:34.899Z,101627.16
2022-08-26T14:27:05.737Z,101618.22
2022-08-26T14:29:36.712Z,101627.97
2022-08-26T14:32:13.712Z,101628.34
2022-08-26T14:34:44.808Z,101631.56
2022-08-26T14:37:15.530Z,101644.59
2022-08-26T14:39:46.502Z,101647.94
2022-08-26T14:42:23.280Z,101651.53
2022-08-26T14:45:01.832Z,101646.63
2022-08-26T14:47:33.534Z,101655.41
2022-08-26T14:50:05.240Z,101652.50
2022-08-26T14:52:56.417Z,101641.19
2022-08-26T14:55:25.016Z,101631.66
2022-08-26T14:57:56.275Z,101633.78
2022-08-26T15:00:27.292Z,101635.94
2022-08-26T15:03:00.230Z,101637.19
2022-08-26T15:05:31.011Z,101636.59
2022-08-26T15:08:02.460Z,101643.66
2022-08-26T15:10:31.189Z,101635.53
2022-08-26T15:13:01.047Z,101636.78
2022-08-26T15:15:31.427Z,101646.78
2022-08-26T15:18:04.651Z,101645.13
2022-08-26T15:23:07.851Z,101639.88
2022-08-26T15:25:37.167Z,101646.75
2022-08-26T15:28:06.362Z,101648.00
2022-08-26T15:30:35.040Z,101656.34
2022-08-26T15:33:06.525Z,101655.31
2022-08-26T15:35:45.477Z,101661.28
2022-08-26T15:38:15.899Z,101649.31
2022-08-26T15:40:45.359Z,101649.06
2022-08-26T15:43:28.822Z,101655.66
2022-08-26T15:46:01.447Z,101651.00
2022-08-26T15:48:33.840Z,101652.06
2022-08-26T15:51:03.866Z,101646.94
2022-08-26T15:53:35.132Z,101639.06
2022-08-26T15:56:06.277Z,101642.22
2022-08-26T15:58:39.888Z,101647.72
2022-08-26T16:01:12.214Z,101653.91
2022-08-26T16:03:43.078Z,101643.69
2022-08-26T16:06:15.619Z,101638.81
2022-08-26T16:08:45.333Z,101633.66
2022-08-26T16:11:19.189Z,101641.56
2022-08-26T16:13:48.570Z,101639.78
2022-08-26T16:16:19.886Z,101645.50
2022-08-26T16:18:50.437Z,101646.28
2022-08-26T16:21:20.792Z,101652.88
2022-08-26T16:23:53.031Z,101640.88
2022-08-26T16:26:27.526Z,101640.25
2022-08-26T16:28:58.316Z,101636.59
2022-08-26T16:31:29.843Z,101642.28
2022-08-26T16:34:02.629Z,101641.91
2022-08-26T16:36:32.159Z,101636.53
2022-08-26T16:39:02.160Z,101647.09
2022-08-26T16:41:33.820Z,101643.97
2022-08-26T16:44:06.123Z,101644.16
2022-08-26T16:46:36.408Z,101645.91
2022-08-26T16:49:07.602Z,101651.84
2022-08-26T16:51:38.426Z,101647.47
2022-08-26T16:54:09.839Z,101654.31
2022-08-26T16:56:42.013Z,101646.78
2022-08-26T16:59:15.561Z,101650.66
2022-08-26T17:01:44.854Z,101653.66
2022-08-26T17:04:16.044Z,101649.19
2022-08-26T17:06:46.150Z,101657.88
2022-08-26T17:09:17.719Z,101654.09
2022-08-26T17:11:49.210Z,101660.97
2022-08-26T17:14:18.914Z,101664.38
2022-08-26T17:16:51.743Z,101654.63
2022-08-26T17:19:23.428Z,101656.41
2022-08-26T17:21:56.801Z,101660.09
2022-08-26T17:24:26.450Z,101657.69
2022-08-26T17:26:59.186Z,101669.00
2022-08-26T17:29:30.403Z,101667.97
2022-08-26T17:32:02.995Z,101670.69
2022-08-26T17:34:35.716Z,101674.75
2022-08-26T17:37:05.601Z,101675.81
2022-08-26T17:39:34.969Z,101676.28
2022-08-26T17:42:04.188Z,101675.06
2022-08-26T17:44:32.560Z,101679.97
2022-08-26T17:47:00.921Z,101691.69
2022-08-26T17:49:29.507Z,101687.91
2022-08-26T17:52:00.333Z,101694.94
2022-08-26T17:54:31.722Z,101687.19
2022-08-26T17:57:01.477Z,101699.13
2022-08-26T17:59:33.064Z,101696.19
2022-08-26T18:02:06.498Z,101709.81
2022-08-26T18:04:35.014Z,101720.97
2022-08-26T18:07:09.227Z,101722.31
2022-08-26T18:09:38.369Z,101718.88
2022-08-26T18:12:08.726Z,101719.06
2022-08-26T18:14:37.596Z,101715.47
2022-08-26T18:17:11.741Z,101723.81
2022-08-26T18:19:45.173Z,101712.75
2022-08-26T18:22:17.552Z,101719.53
2022-08-26T18:24:56.529Z,101719.06
2022-08-26T18:27:29.939Z,101713.09
2022-08-26T18:30:00.938Z,101715.66
2022-08-26T18:32:32.105Z,101726.13
2022-08-26T18:35:02.343Z,101722.47
2022-08-26T18:37:34.239Z,101720.56
2022-08-26T18:40:04.867Z,101721.22
2022-08-26T18:42:33.671Z,101721.66
2022-08-26T18:45:02.557Z,101732.75
2022-08-26T18:47:32.245Z,101724.03
2022-08-26T18:50:03.652Z,101724.63
2022-08-26T18:52:34.376Z,101724.41
2022-08-26T18:55:03.715Z,101729.53
2022-08-26T18:57:31.886Z,101726.53
2022-08-26T19:00:00.380Z,101738.28
2022-08-26T19:02:32.718Z,101730.56
2022-08-26T19:05:01.339Z,101739.53
2022-08-26T19:07:29.979Z,101739.31
2022-08-26T19:09:59.488Z,101735.47
2022-08-26T19:12:27.514Z,101738.03
2022-08-26T19:14:55.742Z,101734.78
2022-08-26T19:17:24.247Z,101732.44
2022-08-26T19:19:53.565Z,101734.78
2022-08-26T19:22:22.168Z,101731.81
2022-08-26T19:24:50.156Z,101732.22
2022-08-26T19:27:20.215Z,101730.91
2022-08-26T19:29:50.282Z,101727.72
2022-08-26T19:32:24.198Z,101725.56
2022-08-26T19:34:52.902Z,101717.00
2022-08-26T19:37:21.860Z,101721.47
2022-08-26T19:39:50.150Z,101715.28
2022-08-26T19:42:20.271Z,101709.53
2022-08-26T19:45:06.967Z,101710.44
2022-08-26T19:47:41.557Z,101711.72
2022-08-26T19:50:14.409Z,101709.59
2022-08-26T19:52:44.296Z,101718.56
2022-08-26T19:55:15.044Z,101723.94
2022-08-26T19:57:45.371Z,101725.66
2022-08-26T20:00:17.036Z,101726.09
2022-08-26T20:02:50.182Z,101724.63
2022-08-26T20:05:20.674Z,101727.72
2022-08-26T20:07:50.552Z,101728.19
2022-08-26T20:10:25.137Z,101733.94
2022-08-26T20:12:56.796Z,101719.44
2022-08-26T20:15:28.512Z,101726.28
2022-08-26T20:17:59.128Z,101718.81
2022-08-26T20:20:45.485Z,101719.41
2022-08-26T20:23:17.396Z,101719.38
2022-08-26T20:25:48.782Z,101710.16
2022-08-26T20:28:20.538Z,101714.44
2022-08-26T20:30:51.383Z,101717.84
2022-08-26T20:33:24.366Z,101712.06
2022-08-26T20:35:53.866Z,101714.81
2022-08-26T20:38:23.698Z,101711.63
2022-08-26T20:40:52.158Z,101709.50
2022-08-26T20:43:25.851Z,101704.81
2022-08-26T20:45:54.348Z,101708.00
2022-08-26T20:48:22.845Z,101712.28
2022-08-26T20:50:51.137Z,101714.63
2022-08-26T20:53:19.213Z,101710.56
2022-08-26T20:55:47.816Z,101708.22
2022-08-26T20:58:16.023Z,101708.66
2022-08-26T21:00:45.546Z,101703.75
2022-08-26T21:03:14.656Z,101705.66
2022-08-26T21:05:43.199Z,101710.78
2022-08-26T21:08:12.070Z,101711.84
2022-08-26T21:10:40.766Z,101715.22
2022-08-26T21:13:09.258Z,101725.09
2022-08-26T21:15:37.643Z,101721.47
2022-08-26T21:18:07.284Z,101723.38
2022-08-26T21:20:37.112Z,101730.66
2022-08-26T21:23:06.866Z,101727.03
2022-08-26T21:25:35.145Z,101723.59
2022-08-26T21:28:03.335Z,101726.81
2022-08-26T21:30:31.727Z,101725.97
2022-08-26T21:32:59.785Z,101727.69
2022-08-26T21:35:30.242Z,101727.22
2022-08-26T21:38:00.188Z,101716.13
2022-08-26T21:40:31.227Z,101716.56
2022-08-26T21:43:00.409Z,101716.38
2022-08-26T21:45:29.210Z,101718.91
2022-08-26T21:47:58.004Z,101725.94
2022-08-26T21:50:26.161Z,101721.88
2022-08-26T21:52:57.461Z,101719.56
2022-08-26T21:55:27.618Z,101721.63
2022-08-26T21:57:57.708Z,101719.50
2022-08-26T22:00:26.370Z,101716.28
2022-08-26T22:02:55.059Z,101722.25
2022-08-26T22:05:23.775Z,101722.66
2022-08-26T22:07:53.765Z,101715.38
2022-08-26T22:10:24.741Z,101722.69
2022-08-26T22:12:54.022Z,101715.63
2022-08-26T22:15:27.604Z,101712.88
2022-08-26T22:17:57.881Z,101711.19
2022-08-26T22:20:26.532Z,101714.38
2022-08-26T22:22:55.041Z,101718.81
2022-08-26T22:25:26.354Z,101718.00
2022-08-26T22:27:55.547Z,101732.50
2022-08-26T22:30:25.352Z,101736.16
2022-08-26T22:32:54.358Z,101732.13
2022-08-26T22:35:28.310Z,101734.28
2022-08-26T22:37:59.641Z,101741.09
2022-08-26T22:40:30.478Z,101735.56
2022-08-26T22:43:00.367Z,101742.81
2022-08-26T22:45:32.196Z,101726.00
2022-08-26T22:48:04.821Z,101736.69
2022-08-26T22:50:33.270Z,101741.84
2022-08-26T22:53:01.402Z,101733.75
2022-08-26T22:55:32.597Z,101738.66
2022-08-26T22:58:04.601Z,101731.81
2022-08-26T23:00:34.993Z,101738.22
2022-08-26T23:03:04.707Z,101734.81
2022-08-26T23:05:34.928Z,101734.47
2022-08-26T23:08:05.995Z,101732.59
2022-08-26T23:10:38.742Z,101737.91
2022-08-26T23:13:09.790Z,101738.16
2022-08-26T23:15:42.468Z,101735.19
2022-08-26T23:18:14.667Z,101740.09
2022-08-26T23:20:44.326Z,101736.06
2022-08-26T23:23:14.892Z,101743.31
2022-08-26T23:25:46.379Z,101739.44
2022-08-26T23:28:16.749Z,101750.34
2022-08-26T23:30:46.649Z,101733.91
2022-08-26T23:33:15.835Z,101725.16
2022-08-26T23:35:45.441Z,101724.53
2022-08-26T23:38:16.405Z,101723.03
2022-08-26T23:40:48.771Z,101722.78
2022-08-26T23:43:17.777Z,101721.31
2022-08-26T23:45:45.744Z,101724.69
2022-08-26T23:48:13.968Z,101714.28
2022-08-26T23:51:02.665Z,101713.41
2022-08-26T23:53:30.933Z,101715.53
2022-08-26T23:56:00.579Z,101712.31
2022-08-26T23:58:28.777Z,101717.22
